Time;durP1;ratioP1;P1;durP2;ratioP2;P2;SDS_P1;SDS_P2;PMS_P1;PMS_P2;Temp;Humidity;BMP_temperature;BMP_pressure;BME280_temperature;BME280_humidity;BME280_pressure;Samples;Min_cycle;Max_cycle;Signal;HPM_P1;HPM_P2
2021/03/21 00:04:45;;;;;;;;;;;7.50;99.90;;;;;;13130705;22;19993;-85
2021/03/21 00:09:46;;;;;;;;;;;5.80;99.90;;;;;;13157664;22;19942;-85
2021/03/21 00:14:48;;;;;;;;;;;6.10;99.90;;;;;;13156885;22;20330;-85
2021/03/21 00:19:49;;;;;;;;;;;5.80;99.90;;;;;;13156676;22;19918;-85
2021/03/21 00:24:50;;;;;;;;;;;6.40;99.90;;;;;;13156646;22;19919;-85
2021/03/21 00:29:52;;;;;;;;;;;5.80;99.90;;;;;;13131268;22;19990;-87
2021/03/21 00:34:53;;;;;;;;;;;6.00;99.90;;;;;;13156389;22;19942;-85
2021/03/21 00:39:54;;;;;;;;;;;6.40;99.90;;;;;;13183642;22;19925;-85
2021/03/21 00:44:55;;;;;;;;;;;5.80;99.90;;;;;;13184132;22;19924;-85
2021/03/21 00:49:57;;;;;;;;;;;5.70;99.90;;;;;;13156316;22;20283;-86
2021/03/21 00:54:58;;;;;;;;;;;5.70;99.90;;;;;;13183814;22;19954;-87
2021/03/21 01:00:04;;;;;;;;;;;7.20;99.90;;;;;;13184150;22;19918;-87
2021/03/21 01:05:09;;;;;;;;;;;5.70;99.90;;;;;;13183714;22;19922;-87
2021/03/21 01:10:11;;;;;;;;;;;5.70;99.90;;;;;;13155095;22;19982;-87
2021/03/21 01:15:13;;;;;;;;;;;5.60;99.90;;;;;;13154327;22;20315;-87
2021/03/21 01:20:15;;;;;;;;;;;5.70;99.90;;;;;;13182547;22;19925;-88
2021/03/21 01:25:20;;;;;;;;;;;6.40;99.90;;;;;;13156318;22;19922;-87
2021/03/21 01:30:26;;;;;;;;;;;5.60;99.90;;;;;;13183387;22;19961;-87
2021/03/21 01:35:27;;;;;;;;;;;5.60;99.90;;;;;;13156299;22;19924;-87
2021/03/21 01:40:29;;;;;;;;;;;5.60;99.90;;;;;;13156079;22;19925;-87
2021/03/21 01:45:30;;;;;;;;;;;5.60;99.90;;;;;;13129725;22;19958;-87
2021/03/21 01:50:43;;;;;;;;;;;5.70;99.90;;;;;;13154422;22;20384;-87
2021/03/21 01:55:45;;;;;;;;;;;5.60;99.90;;;;;;13156148;22;19998;-87
2021/03/21 02:00:50;;;;;;;;;;;5.60;99.90;;;;;;13156365;22;19919;-87
2021/03/21 02:05:56;;;;;;;;;;;5.60;99.90;;;;;;13181540;22;19979;-85
2021/03/21 02:11:05;;;;;;;;;;;4.70;99.90;;;;;;13183209;22;19938;-85
2021/03/21 02:16:09;;;;;;;;;;;5.60;99.90;;;;;;13159245;22;20361;-84
2021/03/21 02:21:11;;;;;;;;;;;5.90;99.90;;;;;;13160000;22;19925;-85
2021/03/21 02:26:31;;;;;;;;;;;4.90;99.90;;;;;;13159024;22;20016;-85
2021/03/21 02:31:43;;;;;;;;;;;5.50;99.90;;;;;;13158423;22;19997;-84
2021/03/21 02:36:51;;;;;;;;;;;5.50;99.90;;;;;;13187932;22;19919;-85
2021/03/21 02:41:59;;;;;;;;;;;5.50;99.90;;;;;;13186948;22;19986;-86
2021/03/21 02:47:04;;;;;;;;;;;5.50;99.90;;;;;;13185950;22;19989;-85
2021/03/21 02:52:09;;;;;;;;;;;5.50;99.90;;;;;;13158961;22;19967;-86
2021/03/21 02:57:12;;;;;;;;;;;5.50;99.90;;;;;;13186658;22;19953;-85
2021/03/21 03:02:26;;;;;;;;;;;6.00;99.90;;;;;;13184926;22;20394;-86
2021/03/21 03:07:31;;;;;;;;;;;6.80;99.90;;;;;;13183841;22;19922;-85
2021/03/21 03:12:34;;;;;;;;;;;5.80;99.90;;;;;;13157418;22;20394;-84
2021/03/21 03:17:40;;;;;;;;;;;5.60;99.90;;;;;;13185060;22;19942;-85
2021/03/21 03:22:46;;;;;;;;;;;9.20;99.90;;;;;;13156170;22;19925;-85
2021/03/21 03:27:51;;;;;;;;;;;8.60;99.90;;;;;;13185246;22;19918;-84
2021/03/21 03:32:53;;;;;;;;;;;9.30;99.90;;;;;;13157947;22;20009;-84
2021/03/21 03:37:54;;;;;;;;;;;8.60;99.90;;;;;;13157093;22;19922;-85
2021/03/21 03:43:03;;;;;;;;;;;6.70;99.90;;;;;;13185689;22;19918;-85
2021/03/21 03:48:20;;;;;;;;;;;5.70;99.90;;;;;;13157951;22;19923;-85
2021/03/21 03:53:40;;;;;;;;;;;5.70;99.90;;;;;;13156753;22;19985;-85
2021/03/21 03:58:53;;;;;;;;;;;5.70;99.90;;;;;;13185662;22;19995;-85
2021/03/21 04:03:59;;;;;;;;;;;5.70;99.90;;;;;;13184458;22;19949;-85
2021/03/21 04:09:16;;;;;;;;;;;5.70;99.90;;;;;;13156793;22;19950;-85
2021/03/21 04:14:21;;;;;;;;;;;5.70;99.90;;;;;;13185360;22;19942;-85
2021/03/21 04:19:25;;;;;;;;;;;5.70;99.90;;;;;;13156921;22;20323;-84
2021/03/21 04:24:32;;;;;;;;;;;5.70;99.90;;;;;;13184230;22;19962;-85
2021/03/21 04:29:51;;;;;;;;;;;5.80;99.90;;;;;;13185009;22;19985;-85
2021/03/21 04:34:55;;;;;;;;;;;5.80;99.90;;;;;;13156183;22;19924;-85
2021/03/21 04:39:57;;;;;;;;;;;5.90;99.90;;;;;;13157179;22;19989;-85
2021/03/21 04:45:02;;;;;;;;;;;6.40;99.90;;;;;;13183928;22;19919;-85
2021/03/21 04:50:04;;;;;;;;;;;5.90;99.90;;;;;;13184562;22;19985;-85
2021/03/21 04:55:09;;;;;;;;;;;5.80;99.90;;;;;;13156962;22;19986;-85
2021/03/21 05:00:15;;;;;;;;;;;5.80;99.90;;;;;;13183879;22;19970;-85
2021/03/21 05:05:25;;;;;;;;;;;5.80;99.90;;;;;;13182448;22;20342;-84
2021/03/21 05:10:32;;;;;;;;;;;5.80;99.90;;;;;;13156210;22;19918;-85
2021/03/21 05:15:33;;;;;;;;;;;5.80;99.90;;;;;;13155315;22;19924;-85
2021/03/21 05:20:39;;;;;;;;;;;6.40;99.90;;;;;;13184139;22;19985;-85
2021/03/21 05:25:55;;;;;;;;;;;5.80;99.90;;;;;;13155479;22;20417;-85
2021/03/21 05:30:57;;;;;;;;;;;5.90;99.90;;;;;;13155952;22;19985;-85
2021/03/21 05:36:02;;;;;;;;;;;6.00;99.90;;;;;;13154994;22;19918;-85
2021/03/21 05:41:26;;;;;;;;;;;7.40;99.90;;;;;;13181944;22;19942;-85
2021/03/21 05:46:33;;;;;;;;;;;5.90;99.90;;;;;;13182718;22;19918;-84
2021/03/21 05:51:35;;;;;;;;;;;6.00;99.90;;;;;;13155900;22;19918;-85
2021/03/21 05:56:55;;;;;;;;;;;6.90;99.90;;;;;;13155247;22;19988;-85
2021/03/21 06:02:12;;;;;;;;;;;6.00;99.90;;;;;;13154888;22;19922;-85
2021/03/21 06:07:32;;;;;;;;;;;6.10;99.90;;;;;;13115621;22;19919;-85
2021/03/21 06:12:49;;;;;;;;;;;5.90;99.90;;;;;;13117005;22;19919;-85
2021/03/21 06:17:57;;;;;;;;;;;6.10;99.90;;;;;;13118051;22;19929;-83
2021/03/21 06:23:25;;;;;;;;;;;7.80;99.90;;;;;;13115884;22;19919;-84
2021/03/21 06:28:39;;;;;;;;;;;6.20;99.90;;;;;;13115877;22;19922;-85
2021/03/21 06:33:58;;;;;;;;;;;6.20;99.90;;;;;;13118199;22;19987;-85
2021/03/21 06:39:19;;;;;;;;;;;6.20;99.90;;;;;;13115672;22;19918;-84
2021/03/21 06:44:29;;;;;;;;;;;6.20;99.90;;;;;;13117498;22;19919;-84
2021/03/21 06:49:49;;;;;;;;;;;6.30;99.90;;;;;;13116822;22;19993;-85
2021/03/21 06:55:10;;;;;;;;;;;6.40;99.90;;;;;;13116464;22;19924;-85
2021/03/21 07:00:18;;;;;;;;;;;6.30;99.90;;;;;;13118722;22;19946;-85
2021/03/21 07:05:31;;;;;;;;;;;6.20;99.90;;;;;;13151051;22;19954;-85
2021/03/21 07:10:47;;;;;;;;;;;6.30;99.90;;;;;;13185958;22;19946;-86
2021/03/21 07:15:54;;;;;;;;;;;6.40;99.90;;;;;;13185585;22;19940;-86
2021/03/21 07:21:14;;;;;;;;;;;6.40;99.90;;;;;;13158928;22;19918;-85
2021/03/21 07:26:16;;;;;;;;;;;6.40;99.90;;;;;;13186260;22;19972;-86
2021/03/21 07:31:20;;;;;;;;;;;7.10;99.90;;;;;;13157934;22;19992;-86
2021/03/21 07:36:26;;;;;;;;;;;6.60;99.90;;;;;;13158591;22;19919;-86
2021/03/21 07:41:46;;;;;;;;;;;6.60;99.90;;;;;;13185091;22;19918;-86
2021/03/21 07:46:58;;;;;;;;;;;6.70;99.90;;;;;;13185191;22;19918;-86
2021/03/21 07:52:06;;;;;;;;;;;6.70;99.90;;;;;;13156798;22;19922;-86
2021/03/21 07:57:16;;;;;;;;;;;6.80;99.90;;;;;;13153103;22;19918;-86
2021/03/21 08:02:22;;;;;;;;;;;6.90;99.90;;;;;;13154828;22;20388;-86
2021/03/21 08:07:35;;;;;;;;;;;7.10;99.90;;;;;;13114708;22;19919;-88
2021/03/21 08:12:41;;;;;;;;;;;7.20;99.90;;;;;;13120182;22;19919;-88
2021/03/21 08:17:55;;;;;;;;;;;7.30;99.90;;;;;;13118798;22;19918;-89
2021/03/21 08:23:09;;;;;;;;;;;7.40;99.90;;;;;;13120498;22;19938;-89
2021/03/21 08:28:12;;;;;;;;;;;7.30;99.90;;;;;;13119616;22;19950;-89
2021/03/21 08:33:24;;;;;;;;;;;7.30;99.90;;;;;;13118204;22;19918;-88
2021/03/21 08:38:25;;;;;;;;;;;8.60;99.90;;;;;;13117671;22;19923;-88
2021/03/21 08:43:31;;;;;;;;;;;7.30;99.90;;;;;;13117873;22;19930;-89
2021/03/21 08:48:34;;;;;;;;;;;8.80;99.90;;;;;;13117469;22;19946;-88
2021/03/21 08:53:55;;;;;;;;;;;8.60;99.90;;;;;;13117713;22;19919;-89
2021/03/21 08:59:13;;;;;;;;;;;7.50;99.90;;;;;;13119480;22;19918;-88
2021/03/21 09:04:15;;;;;;;;;;;7.40;99.90;;;;;;13129398;22;19919;-88
2021/03/21 09:09:23;;;;;;;;;;;7.30;99.90;;;;;;13155839;22;19925;-89
2021/03/21 09:14:26;;;;;;;;;;;7.40;99.90;;;;;;13183085;22;20294;-89
2021/03/21 09:19:30;;;;;;;;;;;7.50;99.90;;;;;;13156741;22;19918;-89
2021/03/21 09:24:35;;;;;;;;;;;7.60;99.90;;;;;;13156128;22;19918;-89
2021/03/21 09:29:37;;;;;;;;;;;7.50;99.90;;;;;;13183569;22;19926;-88
2021/03/21 09:35:02;;;;;;;;;;;7.70;99.90;;;;;;13129540;22;20079;-88
2021/03/21 09:40:12;;;;;;;;;;;7.60;99.90;;;;;;13180022;22;20414;-88
2021/03/21 09:45:14;;;;;;;;;;;7.70;99.90;;;;;;13155239;22;20004;-88
2021/03/21 09:50:15;;;;;;;;;;;7.80;99.90;;;;;;13183438;22;19942;-88
2021/03/21 09:55:35;;;;;;;;;;;7.90;99.90;;;;;;13183487;22;20012;-88
2021/03/21 10:00:41;;;;;;;;;;;7.80;99.90;;;;;;13182189;22;19918;-88
2021/03/21 10:05:55;;;;;;;;;;;7.80;99.90;;;;;;13154593;22;19918;-88
2021/03/21 10:11:02;;;;;;;;;;;7.90;99.90;;;;;;13181679;22;19918;-88
2021/03/21 10:16:30;;;;;;;;;;;7.80;99.90;;;;;;13151818;22;19981;-87
2021/03/21 10:21:37;;;;;;;;;;;7.90;99.90;;;;;;13175315;22;19922;-88
2021/03/21 10:26:58;;;;;;;;;;;8.10;99.90;;;;;;13182099;22;19996;-88
2021/03/21 10:32:18;;;;;;;;;;;8.20;99.90;;;;;;13152738;22;19957;-88
2021/03/21 10:37:42;;;;;;;;;;;8.10;99.90;;;;;;13186080;22;19918;-88
2021/03/21 10:42:46;;;;;;;;;;;7.90;99.90;;;;;;13186385;22;19925;-88
2021/03/21 10:47:50;;;;;;;;;;;10.00;99.90;;;;;;13159028;22;19925;-88
2021/03/21 10:53:12;;;;;;;;;;;8.40;99.90;;;;;;13185470;22;19968;-88
2021/03/21 10:58:29;;;;;;;;;;;8.70;99.90;;;;;;13157310;22;19918;-88
2021/03/21 11:03:31;;;;;;;;;;;9.30;99.90;;;;;;13184664;22;20343;-88
2021/03/21 11:08:33;;;;;;;;;;;9.30;99.90;;;;;;13185400;22;19997;-89
2021/03/21 11:13:35;;;;;;;;;;;8.90;99.90;;;;;;13154706;22;19985;-88
2021/03/21 11:18:37;;;;;;;;;;;9.20;99.90;;;;;;13186013;22;19925;-89
2021/03/21 11:23:58;;;;;;;;;;;9.50;99.90;;;;;;13158171;22;19946;-89
2021/03/21 11:29:05;;;;;;;;;;;9.10;99.90;;;;;;13182336;22;19972;-89
2021/03/21 11:34:19;;;;;;;;;;;9.10;99.90;;;;;;13157748;22;19946;-89
2021/03/21 11:39:32;;;;;;;;;;;9.50;99.90;;;;;;13185385;22;19919;-88
2021/03/21 11:44:33;;;;;;;;;;;9.30;99.90;;;;;;13157592;22;19994;-89
2021/03/21 11:49:35;;;;;;;;;;;9.10;99.90;;;;;;13157938;22;19924;-88
2021/03/21 11:54:37;;;;;;;;;;;8.90;99.90;;;;;;13157699;22;19946;-88
2021/03/21 11:59:44;;;;;;;;;;;9.80;99.90;;;;;;13156617;22;20303;-88
2021/03/21 12:04:45;;;;;;;;;;;9.50;99.90;;;;;;13184705;22;19952;-89
2021/03/21 12:10:03;;;;;;;;;;;9.70;99.90;;;;;;13138112;22;19918;-89
2021/03/21 12:15:06;;;;;;;;;;;9.40;99.90;;;;;;13184679;22;19949;-88
2021/03/21 12:20:26;;;;;;;;;;;9.90;99.90;;;;;;13184778;22;19941;-88
2021/03/21 12:25:29;;;;;;;;;;;9.60;99.90;;;;;;13178902;22;19922;-88
2021/03/21 12:30:51;;;;;;;;;;;9.40;99.90;;;;;;13147859;22;19922;-88
2021/03/21 12:35:54;;;;;;;;;;;9.60;99.90;;;;;;13151618;22;19918;-88
2021/03/21 12:40:56;;;;;;;;;;;10.10;99.90;;;;;;13180937;22;19989;-88
2021/03/21 12:46:06;;;;;;;;;;;9.80;99.90;;;;;;13183069;22;20313;-88
2021/03/21 12:51:13;;;;;;;;;;;9.50;99.90;;;;;;13153491;22;19961;-87
2021/03/21 12:56:14;;;;;;;;;;;9.30;99.90;;;;;;13175696;22;19922;-89
2021/03/21 13:01:16;;;;;;;;;;;10.10;99.90;;;;;;13156031;22;19986;-88
2021/03/21 13:06:18;;;;;;;;;;;9.80;99.90;;;;;;13183274;22;19929;-88
2021/03/21 13:11:19;;;;;;;;;;;10.30;99.90;;;;;;13182778;22;20366;-88
2021/03/21 13:16:20;;;;;;;;;;;10.00;99.90;;;;;;13129355;22;20517;-88
2021/03/21 13:21:22;;;;;;;;;;;9.10;99.90;;;;;;13154718;22;19918;-88
2021/03/21 13:26:24;;;;;;;;;;;11.50;99.90;;;;;;13182792;22;19922;-88
2021/03/21 13:31:25;;;;;;;;;;;8.80;99.90;;;;;;13152303;22;19919;-88
2021/03/21 13:36:26;;;;;;;;;;;8.90;99.90;;;;;;13127699;22;20276;-88
2021/03/21 13:41:28;;;;;;;;;;;9.00;99.90;;;;;;13182071;22;19922;-88
2021/03/21 13:46:29;;;;;;;;;;;9.60;99.90;;;;;;13153954;22;19922;-87
2021/03/21 13:51:30;;;;;;;;;;;8.90;99.90;;;;;;13152355;22;19989;-88
2021/03/21 13:56:32;;;;;;;;;;;9.30;99.90;;;;;;13178615;22;19923;-88
2021/03/21 14:01:34;;;;;;;;;;;9.10;99.90;;;;;;13177484;22;19988;-88
2021/03/21 14:06:36;;;;;;;;;;;8.90;99.90;;;;;;13173413;22;20319;-88
2021/03/21 14:11:38;;;;;;;;;;;9.20;99.90;;;;;;13185685;22;19924;-88
2021/03/21 14:16:40;;;;;;;;;;;9.00;99.90;;;;;;13185241;22;20323;-88
2021/03/21 14:21:42;;;;;;;;;;;8.90;99.90;;;;;;13132949;22;19941;-88
2021/03/21 14:26:43;;;;;;;;;;;8.70;99.90;;;;;;13186341;22;19924;-89
2021/03/21 14:31:45;;;;;;;;;;;8.80;99.90;;;;;;13185676;22;20384;-88
2021/03/21 14:36:47;;;;;;;;;;;8.50;99.90;;;;;;13177513;22;19952;-88
2021/03/21 14:41:50;;;;;;;;;;;9.30;99.90;;;;;;13121738;22;20295;-88
2021/03/21 14:46:52;;;;;;;;;;;9.90;99.90;;;;;;13117172;22;19928;-88
2021/03/21 14:51:54;;;;;;;;;;;8.30;99.90;;;;;;13146865;22;20257;-88
2021/03/21 14:56:55;;;;;;;;;;;8.30;99.90;;;;;;13147629;22;20017;-88
2021/03/21 15:02:00;;;;;;;;;;;8.30;99.90;;;;;;13122447;22;19926;-88
2021/03/21 15:07:02;;;;;;;;;;;8.60;99.90;;;;;;13121640;22;19918;-88
2021/03/21 15:12:03;;;;;;;;;;;8.30;99.90;;;;;;13146386;22;20246;-88
2021/03/21 15:17:05;;;;;;;;;;;8.20;99.90;;;;;;13147457;22;19926;-88
2021/03/21 15:22:07;;;;;;;;;;;8.10;99.90;;;;;;13120297;22;19928;-88
2021/03/21 15:27:08;;;;;;;;;;;8.70;99.90;;;;;;13120797;22;20224;-88
2021/03/21 15:32:09;;;;;;;;;;;8.20;99.90;;;;;;13147307;22;19928;-88
2021/03/21 15:37:11;;;;;;;;;;;8.80;99.90;;;;;;13146104;22;20347;-88
2021/03/21 15:42:13;;;;;;;;;;;8.10;99.90;;;;;;13146301;22;19938;-88
2021/03/21 15:47:14;;;;;;;;;;;8.00;99.90;;;;;;13120098;22;20349;-88
2021/03/21 15:52:15;;;;;;;;;;;8.50;99.90;;;;;;13120406;22;20368;-88
2021/03/21 15:57:17;;;;;;;;;;;7.70;99.90;;;;;;13139692;22;19930;-88
2021/03/21 16:02:18;;;;;;;;;;;9.70;99.90;;;;;;13121331;22;19994;-88
2021/03/21 16:07:19;;;;;;;;;;;9.40;99.90;;;;;;13177369;22;20004;-87
2021/03/21 16:12:21;;;;;;;;;;;7.70;99.90;;;;;;13175032;22;19922;-88
2021/03/21 16:17:22;;;;;;;;;;;7.90;99.90;;;;;;13120159;22;19918;-88
2021/03/21 16:22:23;;;;;;;;;;;7.60;99.90;;;;;;13174445;22;19922;-88
2021/03/21 16:27:26;;;;;;;;;;;7.50;99.90;;;;;;13120134;22;19922;-89
2021/03/21 16:32:27;;;;;;;;;;;7.60;99.90;;;;;;13117355;22;20563;-89
2021/03/21 16:37:28;;;;;;;;;;;7.70;99.90;;;;;;13119149;22;20258;-88
2021/03/21 16:42:29;;;;;;;;;;;8.20;99.90;;;;;;13146092;22;19922;-88
2021/03/21 16:47:31;;;;;;;;;;;9.10;99.90;;;;;;13120935;22;19965;-88
2021/03/21 16:52:33;;;;;;;;;;;7.20;99.90;;;;;;13145612;22;20335;-88
2021/03/21 16:57:34;;;;;;;;;;;7.30;99.90;;;;;;13173060;22;20023;-88
2021/03/21 17:02:35;;;;;;;;;;;8.30;99.90;;;;;;13145752;22;19922;-87
2021/03/21 17:07:37;;;;;;;;;;;7.30;99.90;;;;;;13119630;22;19923;-87
2021/03/21 17:12:41;;;;;;;;;;;7.00;99.90;;;;;;13145201;22;20286;-87
2021/03/21 17:17:42;;;;;;;;;;;6.90;99.90;;;;;;13172066;22;20313;-87
2021/03/21 17:22:45;;;;;;;;;;;7.40;99.90;;;;;;13145856;22;19993;-87
2021/03/21 17:27:47;;;;;;;;;;;6.80;99.90;;;;;;13118920;22;19958;-88
2021/03/21 17:32:48;;;;;;;;;;;6.80;99.90;;;;;;13144583;22;19993;-87
2021/03/21 17:37:50;;;;;;;;;;;6.80;99.90;;;;;;13144815;22;19937;-88
2021/03/21 17:42:56;;;;;;;;;;;8.60;99.90;;;;;;13145642;22;19922;-88
2021/03/21 17:47:57;;;;;;;;;;;6.60;99.90;;;;;;13144399;22;19930;-88
2021/03/21 17:52:59;;;;;;;;;;;6.70;99.90;;;;;;13172408;22;19930;-88
2021/03/21 17:58:00;;;;;;;;;;;8.30;99.90;;;;;;13144187;22;20273;-87
2021/03/21 18:03:02;;;;;;;;;;;6.50;99.90;;;;;;13144145;22;20258;-88
2021/03/21 18:08:03;;;;;;;;;;;6.40;99.90;;;;;;13144834;22;20001;-88
2021/03/21 18:13:17;;;;;;;;;;;6.30;99.90;;;;;;13172465;22;19937;-88
2021/03/21 18:18:18;;;;;;;;;;;7.70;99.90;;;;;;13117771;22;19922;-88
2021/03/21 18:23:20;;;;;;;;;;;8.00;99.90;;;;;;13143883;22;19922;-88
2021/03/21 18:28:23;;;;;;;;;;;6.80;99.90;;;;;;13170968;22;20032;-88
2021/03/21 18:33:27;;;;;;;;;;;7.30;99.90;;;;;;13144253;22;19988;-88
2021/03/21 18:38:28;;;;;;;;;;;6.20;99.90;;;;;;13143228;22;20331;-88
2021/03/21 18:43:40;;;;;;;;;;;6.20;99.90;;;;;;13122750;22;19976;-88
2021/03/21 18:48:42;;;;;;;;;;;6.20;99.90;;;;;;13142620;22;19922;-88
2021/03/21 18:53:43;;;;;;;;;;;6.20;99.90;;;;;;13172999;22;19922;-88
2021/03/21 18:58:46;;;;;;;;;;;6.10;99.90;;;;;;13169833;22;19926;-87
2021/03/21 19:03:47;;;;;;;;;;;8.10;99.90;;;;;;13146850;22;19922;-88
2021/03/21 19:08:48;;;;;;;;;;;7.50;99.90;;;;;;13146835;22;19922;-88
2021/03/21 19:14:03;;;;;;;;;;;6.10;99.90;;;;;;13175915;22;19922;-88
2021/03/21 19:19:05;;;;;;;;;;;6.00;99.90;;;;;;13147111;22;20389;-88
2021/03/21 19:24:06;;;;;;;;;;;6.50;99.90;;;;;;13146653;22;19944;-88
2021/03/21 19:29:07;;;;;;;;;;;5.80;99.90;;;;;;13176145;22;20005;-88
2021/03/21 19:34:09;;;;;;;;;;;5.60;99.90;;;;;;13114825;22;20015;-88
2021/03/21 19:39:10;;;;;;;;;;;5.50;99.90;;;;;;13120706;22;20001;-88
2021/03/21 19:44:29;;;;;;;;;;;5.30;99.90;;;;;;13150003;22;20320;-88
2021/03/21 19:49:32;;;;;;;;;;;5.30;99.90;;;;;;13147080;22;20001;-88
2021/03/21 19:54:34;;;;;;;;;;;5.20;99.90;;;;;;13120458;22;19922;-88
2021/03/21 19:59:35;;;;;;;;;;;5.80;99.90;;;;;;13174765;22;19922;-88
2021/03/21 20:04:36;;;;;;;;;;;5.70;99.90;;;;;;13145760;22;20327;-88
2021/03/21 20:09:38;;;;;;;;;;;5.20;99.90;;;;;;13120292;22;20321;-87
2021/03/21 20:14:50;;;;;;;;;;;5.20;99.90;;;;;;13170309;22;19926;-88
2021/03/21 20:19:52;;;;;;;;;;;5.10;99.90;;;;;;13145632;22;19944;-88
2021/03/21 20:24:56;;;;;;;;;;;5.10;99.90;;;;;;13173948;22;19922;-88
2021/03/21 20:29:57;;;;;;;;;;;7.20;99.90;;;;;;13146594;22;19929;-88
2021/03/21 20:34:58;;;;;;;;;;;6.30;99.90;;;;;;13170762;22;19922;-86
2021/03/21 20:40:00;;;;;;;;;;;3.10;99.90;;;;;;13145316;22;19918;-86
2021/03/21 20:45:14;;;;;;;;;;;5.10;99.90;;;;;;13125661;22;19953;-86
2021/03/21 20:50:16;;;;;;;;;;;5.20;99.90;;;;;;13141244;22;20357;-86
2021/03/21 20:55:20;;;;;;;;;;;5.30;99.90;;;;;;13172080;22;19993;-85
2021/03/21 21:00:23;;;;;;;;;;;5.40;99.90;;;;;;13144973;22;19976;-85
2021/03/21 21:05:25;;;;;;;;;;;5.30;99.90;;;;;;13144741;22;19918;-85
2021/03/21 21:10:29;;;;;;;;;;;7.50;99.90;;;;;;13145032;22;19922;-85
2021/03/21 21:15:41;;;;;;;;;;;5.30;99.90;;;;;;13146933;22;20236;-86
2021/03/21 21:20:47;;;;;;;;;;;5.70;99.90;;;;;;13143845;22;20228;-86
2021/03/21 21:25:48;;;;;;;;;;;7.00;99.90;;;;;;13172156;22;20425;-86
2021/03/21 21:30:49;;;;;;;;;;;7.20;99.90;;;;;;13144289;22;20315;-86
2021/03/21 21:35:51;;;;;;;;;;;6.20;99.90;;;;;;13143018;22;19922;-85
2021/03/21 21:40:53;;;;;;;;;;;5.50;99.90;;;;;;13122473;22;20472;-86
2021/03/21 21:46:11;;;;;;;;;;;7.70;99.90;;;;;;13180743;22;19922;-86
2021/03/21 21:51:13;;;;;;;;;;;5.10;99.90;;;;;;13152833;22;20251;-86
2021/03/21 21:56:14;;;;;;;;;;;5.00;99.90;;;;;;13179817;22;19958;-86
2021/03/21 22:01:16;;;;;;;;;;;5.00;99.90;;;;;;13153260;22;19953;-86
2021/03/21 22:06:19;;;;;;;;;;;4.80;99.90;;;;;;13152530;22;20293;-86
2021/03/21 22:11:20;;;;;;;;;;;5.00;99.90;;;;;;13153334;22;19993;-86
2021/03/21 22:16:29;;;;;;;;;;;4.60;99.90;;;;;;13129917;22;19918;-86
2021/03/21 22:21:35;;;;;;;;;;;5.10;99.90;;;;;;13153085;22;20258;-86
2021/03/21 22:26:36;;;;;;;;;;;4.40;99.90;;;;;;13152378;22;19924;-86
2021/03/21 22:31:40;;;;;;;;;;;4.30;99.90;;;;;;13184190;22;19928;-86
2021/03/21 22:36:43;;;;;;;;;;;5.50;99.90;;;;;;13156328;22;19918;-86
2021/03/21 22:41:44;;;;;;;;;;;4.10;99.90;;;;;;13183919;22;20387;-87
2021/03/21 22:46:51;;;;;;;;;;;4.70;99.90;;;;;;13157525;22;19968;-87
2021/03/21 22:51:53;;;;;;;;;;;4.30;99.90;;;;;;13131596;22;19918;-87
2021/03/21 22:56:54;;;;;;;;;;;3.80;99.90;;;;;;13130690;22;19925;-87
2021/03/21 23:01:56;;;;;;;;;;;5.90;99.90;;;;;;13129861;22;20333;-87
2021/03/21 23:06:58;;;;;;;;;;;6.90;99.90;;;;;;13156144;22;19976;-86
2021/03/21 23:11:59;;;;;;;;;;;3.70;99.90;;;;;;13129903;22;20327;-87
2021/03/21 23:17:17;;;;;;;;;;;6.30;99.90;;;;;;13159725;22;19918;-87
2021/03/21 23:22:18;;;;;;;;;;;3.60;99.90;;;;;;13129580;22;19949;-87
2021/03/21 23:27:20;;;;;;;;;;;5.00;99.90;;;;;;13156382;22;19949;-87
2021/03/21 23:32:21;;;;;;;;;;;5.10;99.90;;;;;;13129847;22;20297;-87
2021/03/21 23:37:22;;;;;;;;;;;3.60;99.90;;;;;;13182778;22;19932;-87
2021/03/21 23:42:24;;;;;;;;;;;2.30;99.90;;;;;;13154600;22;20252;-89
2021/03/21 23:47:38;;;;;;;;;;;3.50;99.90;;;;;;13183296;22;19998;-87
2021/03/21 23:52:40;;;;;;;;;;;6.40;99.90;;;;;;13155038;22;20355;-87
2021/03/21 23:57:43;;;;;;;;;;;4.90;99.90;;;;;;13131121;22;19918;-87
